createdAt,value
2022-08-07T00:10:04.664Z,12.27
2022-08-07T00:20:10.717Z,13.25
2022-08-07T00:30:21.611Z,13.25
2022-08-07T00:40:39.044Z,12.70
2022-08-07T00:50:46.355Z,15.65
2022-08-07T01:00:53.697Z,17.73
2022-08-07T01:10:56.731Z,12.55
2022-08-07T01:21:22.843Z,13.13
2022-08-07T01:31:41.867Z,13.38
2022-08-07T01:42:07.333Z,14.10
2022-08-07T01:52:10.603Z,11.63
2022-08-07T02:02:33.039Z,11.55
2022-08-07T02:12:50.154Z,11.55
2022-08-07T02:22:59.751Z,11.57
2022-08-07T02:33:09.499Z,11.20
2022-08-07T02:43:13.060Z,13.18
2022-08-07T02:53:21.697Z,12.25
2022-08-07T03:03:49.276Z,13.70
2022-08-07T03:13:57.620Z,13.18
2022-08-07T03:24:19.307Z,12.43
2022-08-07T03:34:28.030Z,14.13
2022-08-07T03:44:34.511Z,15.27
2022-08-07T03:54:54.939Z,11.67
2022-08-07T04:04:58.934Z,12.77
2022-08-07T04:15:02.025Z,14.52
2022-08-07T04:25:08.787Z,17.02
2022-08-07T04:35:14.506Z,17.80
2022-08-07T04:45:22.435Z,18.70
2022-08-07T04:58:12.231Z,20.45
2022-08-07T05:06:19.110Z,18.92
2022-08-07T05:16:23.000Z,19.45
2022-08-07T05:26:28.194Z,19.50
2022-08-07T05:36:35.431Z,20.13
2022-08-07T05:46:39.019Z,16.63
2022-08-07T05:56:42.020Z,16.10
2022-08-07T06:06:46.111Z,15.00
2022-08-07T06:16:56.402Z,15.93
2022-08-07T06:26:59.470Z,13.35
2022-08-07T06:37:05.703Z,14.00
2022-08-07T06:47:10.402Z,12.65
2022-08-07T06:57:18.653Z,12.23
2022-08-07T07:07:59.622Z,11.35
2022-08-07T07:18:33.105Z,10.32
2022-08-07T07:29:39.390Z,10.25
2022-08-07T07:39:25.467Z,11.38
2022-08-07T07:50:33.756Z,10.88
2022-08-07T07:59:54.941Z,9.07
2022-08-07T08:10:05.443Z,9.77
2022-08-07T08:20:16.942Z,8.90
2022-08-07T08:30:26.001Z,11.27
2022-08-07T08:50:56.409Z,8.35
2022-08-07T09:01:39.808Z,9.57
2022-08-07T09:12:00.702Z,8.70
2022-08-07T09:24:27.342Z,10.38
2022-08-07T09:33:16.666Z,8.20
2022-08-07T09:43:40.320Z,7.30
2022-08-07T09:54:02.612Z,6.40
2022-08-07T10:04:53.303Z,16.70
2022-08-07T10:15:15.116Z,10.20
2022-08-07T10:25:55.365Z,8.68
2022-08-07T10:36:29.726Z,10.57
2022-08-07T10:46:59.064Z,7.45
2022-08-07T10:57:34.739Z,8.10
2022-08-07T11:08:12.739Z,8.77
2022-08-07T11:18:33.490Z,7.45
2022-08-07T11:28:43.099Z,7.38
2022-08-07T11:39:14.514Z,8.55
2022-08-07T11:50:25.510Z,8.57
2022-08-07T12:00:18.953Z,7.37
2022-08-07T12:10:35.226Z,7.70
2022-08-07T12:20:49.322Z,7.88
2022-08-07T12:30:54.603Z,8.25
2022-08-07T12:41:01.103Z,8.40
2022-08-07T12:51:13.031Z,9.13
2022-08-07T13:01:40.526Z,9.48
2022-08-07T13:12:28.561Z,8.38
2022-08-07T13:22:37.955Z,8.70
2022-08-07T13:33:16.361Z,8.77
2022-08-07T13:43:35.516Z,9.52
2022-08-07T13:53:59.422Z,9.20
2022-08-07T14:04:09.975Z,7.88
2022-08-07T14:14:15.705Z,9.68
2022-08-07T14:24:42.324Z,9.07
2022-08-07T14:34:48.909Z,9.90
2022-08-07T14:45:21.370Z,9.68
2022-08-07T14:55:31.822Z,10.18
2022-08-07T15:05:34.626Z,9.85
2022-08-07T15:15:40.828Z,13.25
2022-08-07T15:25:56.950Z,13.30
2022-08-07T15:36:05.418Z,11.80
2022-08-07T15:46:32.284Z,9.93
2022-08-07T15:56:42.736Z,12.20
2022-08-07T16:06:54.342Z,11.57
2022-08-07T16:17:14.972Z,10.93
2022-08-07T16:27:40.565Z,8.90
2022-08-07T16:38:29.585Z,8.35
2022-08-07T16:50:28.884Z,8.43
2022-08-07T16:59:24.996Z,8.25
2022-08-07T17:10:06.620Z,10.05
2022-08-07T17:20:32.875Z,7.55
2022-08-07T17:30:57.849Z,8.98
2022-08-07T17:42:01.077Z,7.90
2022-08-07T17:52:04.448Z,13.07
2022-08-07T18:02:25.796Z,8.90
2022-08-07T18:13:01.495Z,8.35
2022-08-07T18:23:42.265Z,6.95
2022-08-07T18:33:54.889Z,7.20
2022-08-07T18:44:12.071Z,6.78
2022-08-07T18:54:30.561Z,7.50
2022-08-07T19:04:57.727Z,7.13
2022-08-07T19:16:02.479Z,6.53
2022-08-07T19:26:24.929Z,8.07
2022-08-07T19:36:04.305Z,7.18
2022-08-07T19:46:10.569Z,8.18
2022-08-07T19:57:52.391Z,8.47
2022-08-07T20:06:37.089Z,6.35
2022-08-07T20:16:54.334Z,7.88
2022-08-07T20:27:01.930Z,7.15
2022-08-07T20:37:06.060Z,5.93
2022-08-07T20:47:12.436Z,6.25
2022-08-07T20:57:17.518Z,6.78
2022-08-07T21:07:26.766Z,8.30
2022-08-07T21:18:03.404Z,7.05
2022-08-07T21:28:18.832Z,8.13
2022-08-07T21:38:28.920Z,7.50
2022-08-07T21:48:56.621Z,8.38
2022-08-07T21:59:29.758Z,11.40
2022-08-07T22:09:38.156Z,9.27
2022-08-07T22:20:04.042Z,8.50
